Cottam, Canada
Current Conditions -  °F | °C
As of 3:00 AM on Monday 22 Dec 2014 (Local Time) from CYQG Reporting Station
Overcast Overcast  
Wind Chill: 17°   Ceiling: 24000
Heat Index: 25°   Visibility: 10mi
Dew Point: 21°   Wind: 7mph
Humidity: 86%   Direction: 90°E
Pressure: 30.15"   Gusts: NA
Location:  42.13°N, 82.75°W
Report Text: CYQG 220800Z 09006KT 10SM OVC240 M04/M06 A3015 RMK CI8 SLP220
Loading
Personal Weather Stations






























Interactive Weather Map New forecast layout! Learn more

10-Day Weather Forecast

Advertisements
Track Severe Weather on mobile